Terminal Aerodrome Forecast
Issued by NWS Charleston, WV

Current Version | Previous Version | Graphics & Text | Print | Product List | Glossary On
Versions: 1 2 3 4 5 6 7 8 9 10 11 12 13 14 15 16 17 18 19 20 21 22 23 24 25 26 27 28
000
FTUS41 KRLX 210200 AAA
TAFEKN
TAF AMD
KEKN 210201Z 2102/2124 00000KT P6SM SCT050
     FM210400 00000KT 4SM BR BKN050
     FM210600 00000KT 3/4SM BR BKN001
     FM210800 00000KT 1/4SM FG VV001
     FM211300 00000KT 1SM BR SCT001 BKN025
     FM211500 VRB03KT 5SM SHRA BR VCTS BKN040CB
     FM211800 27005KT P6SM SHRA VCTS BKN025CB
     FM212000 26006KT P6SM TSRA BKN030CB
     FM212200 26005KT P6SM TSRA BKN035CB=

USA.gov is the U.S. government's official web portal to all federal, state and local government web resources and services.